sensor_id;sensor_type;location;lat;lon;timestamp;P1;durP1;ratioP1;P2;durP2;ratioP2
19617;SDS011;9956;51.006;13.670;2022-07-29T00:03:51;5.00;;;1.85;;
19617;SDS011;9956;51.006;13.670;2022-07-29T00:08:51;4.63;;;1.60;;
19617;SDS011;9956;51.006;13.670;2022-07-29T00:13:52;4.93;;;2.13;;
19617;SDS011;9956;51.006;13.670;2022-07-29T00:18:52;5.35;;;2.40;;
19617;SDS011;9956;51.006;13.670;2022-07-29T00:23:52;7.18;;;2.60;;
19617;SDS011;9956;51.006;13.670;2022-07-29T00:28:53;4.68;;;2.00;;
19617;SDS011;9956;51.006;13.670;2022-07-29T00:33:53;6.43;;;1.98;;
19617;SDS011;9956;51.006;13.670;2022-07-29T00:38:54;4.95;;;1.95;;
19617;SDS011;9956;51.006;13.670;2022-07-29T00:43:54;3.33;;;2.20;;
19617;SDS011;9956;51.006;13.670;2022-07-29T00:48:54;4.78;;;2.40;;
19617;SDS011;9956;51.006;13.670;2022-07-29T00:53:55;3.45;;;1.95;;
19617;SDS011;9956;51.006;13.670;2022-07-29T00:58:56;3.15;;;1.98;;
19617;SDS011;9956;51.006;13.670;2022-07-29T01:03:57;6.38;;;2.65;;
19617;SDS011;9956;51.006;13.670;2022-07-29T01:08:57;7.10;;;2.55;;
19617;SDS011;9956;51.006;13.670;2022-07-29T01:13:58;3.25;;;1.88;;
19617;SDS011;9956;51.006;13.670;2022-07-29T01:19:00;4.20;;;2.03;;
19617;SDS011;9956;51.006;13.670;2022-07-29T01:24:33;3.95;;;2.42;;
19617;SDS011;9956;51.006;13.670;2022-07-29T01:29:54;3.47;;;2.03;;
19617;SDS011;9956;51.006;13.670;2022-07-29T01:35:00;5.90;;;2.55;;
19617;SDS011;9956;51.006;13.670;2022-07-29T01:40:02;6.38;;;2.28;;
19617;SDS011;9956;51.006;13.670;2022-07-29T01:50:36;4.43;;;2.35;;
19617;SDS011;9956;51.006;13.670;2022-07-29T01:55:41;3.15;;;2.55;;
19617;SDS011;9956;51.006;13.670;2022-07-29T02:00:44;5.30;;;2.47;;
19617;SDS011;9956;51.006;13.670;2022-07-29T02:05:46;4.30;;;2.38;;
19617;SDS011;9956;51.006;13.670;2022-07-29T02:10:48;5.82;;;2.72;;
19617;SDS011;9956;51.006;13.670;2022-07-29T02:15:49;6.05;;;3.50;;
19617;SDS011;9956;51.006;13.670;2022-07-29T02:20:52;5.90;;;3.55;;
19617;SDS011;9956;51.006;13.670;2022-07-29T02:25:55;4.13;;;3.72;;
19617;SDS011;9956;51.006;13.670;2022-07-29T02:30:58;4.10;;;2.92;;
19617;SDS011;9956;51.006;13.670;2022-07-29T02:36:00;6.07;;;4.15;;
19617;SDS011;9956;51.006;13.670;2022-07-29T02:41:03;8.52;;;3.90;;
19617;SDS011;9956;51.006;13.670;2022-07-29T02:46:07;4.85;;;3.28;;
19617;SDS011;9956;51.006;13.670;2022-07-29T02:51:17;6.38;;;4.32;;
19617;SDS011;9956;51.006;13.670;2022-07-29T02:56:23;8.98;;;3.67;;
19617;SDS011;9956;51.006;13.670;2022-07-29T03:01:25;7.72;;;3.60;;
19617;SDS011;9956;51.006;13.670;2022-07-29T03:06:28;5.97;;;4.30;;
19617;SDS011;9956;51.006;13.670;2022-07-29T03:11:30;7.03;;;4.82;;
19617;SDS011;9956;51.006;13.670;2022-07-29T03:16:31;8.68;;;5.18;;
19617;SDS011;9956;51.006;13.670;2022-07-29T03:21:31;8.25;;;5.15;;
19617;SDS011;9956;51.006;13.670;2022-07-29T03:26:33;8.30;;;6.13;;
19617;SDS011;9956;51.006;13.670;2022-07-29T03:31:33;9.55;;;6.47;;
19617;SDS011;9956;51.006;13.670;2022-07-29T03:36:34;10.82;;;7.03;;
19617;SDS011;9956;51.006;13.670;2022-07-29T03:41:35;10.90;;;7.20;;
19617;SDS011;9956;51.006;13.670;2022-07-29T03:46:36;9.32;;;7.35;;
19617;SDS011;9956;51.006;13.670;2022-07-29T03:51:38;12.68;;;6.88;;
19617;SDS011;9956;51.006;13.670;2022-07-29T03:56:42;12.23;;;8.20;;
19617;SDS011;9956;51.006;13.670;2022-07-29T04:01:46;11.90;;;6.78;;
19617;SDS011;9956;51.006;13.670;2022-07-29T04:06:46;10.27;;;5.88;;
19617;SDS011;9956;51.006;13.670;2022-07-29T04:11:47;17.52;;;7.40;;
19617;SDS011;9956;51.006;13.670;2022-07-29T04:16:47;10.82;;;7.57;;
19617;SDS011;9956;51.006;13.670;2022-07-29T04:28:13;11.40;;;8.15;;
19617;SDS011;9956;51.006;13.670;2022-07-29T04:33:14;11.68;;;8.18;;
19617;SDS011;9956;51.006;13.670;2022-07-29T04:38:14;15.32;;;9.75;;
19617;SDS011;9956;51.006;13.670;2022-07-29T04:43:15;17.90;;;9.73;;
19617;SDS011;9956;51.006;13.670;2022-07-29T04:48:16;14.65;;;11.60;;
19617;SDS011;9956;51.006;13.670;2022-07-29T04:53:17;15.70;;;11.15;;
19617;SDS011;9956;51.006;13.670;2022-07-29T04:58:17;14.30;;;10.93;;
19617;SDS011;9956;51.006;13.670;2022-07-29T05:03:18;12.15;;;10.48;;
19617;SDS011;9956;51.006;13.670;2022-07-29T05:08:18;12.98;;;10.30;;
19617;SDS011;9956;51.006;13.670;2022-07-29T05:13:19;16.83;;;12.20;;
19617;SDS011;9956;51.006;13.670;2022-07-29T05:18:19;14.63;;;12.35;;
19617;SDS011;9956;51.006;13.670;2022-07-29T05:23:19;15.85;;;12.27;;
19617;SDS011;9956;51.006;13.670;2022-07-29T05:28:20;13.52;;;10.90;;
19617;SDS011;9956;51.006;13.670;2022-07-29T05:33:20;14.23;;;11.20;;
19617;SDS011;9956;51.006;13.670;2022-07-29T05:38:21;16.02;;;11.98;;
19617;SDS011;9956;51.006;13.670;2022-07-29T05:43:21;19.70;;;14.15;;
19617;SDS011;9956;51.006;13.670;2022-07-29T05:48:22;17.13;;;11.93;;
19617;SDS011;9956;51.006;13.670;2022-07-29T05:53:22;18.60;;;14.52;;
19617;SDS011;9956;51.006;13.670;2022-07-29T05:58:23;16.83;;;13.85;;
19617;SDS011;9956;51.006;13.670;2022-07-29T06:03:23;17.52;;;13.70;;
19617;SDS011;9956;51.006;13.670;2022-07-29T06:08:23;20.48;;;14.75;;
19617;SDS011;9956;51.006;13.670;2022-07-29T06:13:24;19.27;;;14.55;;
19617;SDS011;9956;51.006;13.670;2022-07-29T06:18:24;19.90;;;15.77;;
19617;SDS011;9956;51.006;13.670;2022-07-29T06:23:25;17.75;;;15.73;;
19617;SDS011;9956;51.006;13.670;2022-07-29T06:28:25;26.55;;;21.30;;
19617;SDS011;9956;51.006;13.670;2022-07-29T06:33:29;24.73;;;21.70;;
19617;SDS011;9956;51.006;13.670;2022-07-29T06:38:29;26.33;;;22.23;;
19617;SDS011;9956;51.006;13.670;2022-07-29T06:43:31;29.13;;;24.58;;
19617;SDS011;9956;51.006;13.670;2022-07-29T06:48:33;32.10;;;26.88;;
19617;SDS011;9956;51.006;13.670;2022-07-29T06:53:36;34.42;;;29.15;;
19617;SDS011;9956;51.006;13.670;2022-07-29T06:58:36;44.70;;;38.65;;
19617;SDS011;9956;51.006;13.670;2022-07-29T07:03:36;47.63;;;40.17;;
19617;SDS011;9956;51.006;13.670;2022-07-29T07:08:37;44.60;;;35.08;;
19617;SDS011;9956;51.006;13.670;2022-07-29T07:13:37;38.50;;;32.13;;
19617;SDS011;9956;51.006;13.670;2022-07-29T07:18:38;40.95;;;36.33;;
19617;SDS011;9956;51.006;13.670;2022-07-29T07:23:38;53.58;;;42.30;;
19617;SDS011;9956;51.006;13.670;2022-07-29T07:28:39;51.10;;;43.25;;
19617;SDS011;9956;51.006;13.670;2022-07-29T07:33:39;57.10;;;45.22;;
19617;SDS011;9956;51.006;13.670;2022-07-29T07:38:39;55.88;;;46.55;;
19617;SDS011;9956;51.006;13.670;2022-07-29T07:43:40;54.80;;;48.10;;
19617;SDS011;9956;51.006;13.670;2022-07-29T07:48:40;59.72;;;46.70;;
19617;SDS011;9956;51.006;13.670;2022-07-29T07:53:41;53.42;;;44.22;;
19617;SDS011;9956;51.006;13.670;2022-07-29T07:58:41;57.47;;;47.17;;
19617;SDS011;9956;51.006;13.670;2022-07-29T08:03:42;62.70;;;52.30;;
19617;SDS011;9956;51.006;13.670;2022-07-29T08:08:42;66.47;;;54.30;;
19617;SDS011;9956;51.006;13.670;2022-07-29T08:13:43;61.17;;;51.47;;
19617;SDS011;9956;51.006;13.670;2022-07-29T08:18:44;62.05;;;51.42;;
19617;SDS011;9956;51.006;13.670;2022-07-29T08:23:45;66.10;;;49.10;;
19617;SDS011;9956;51.006;13.670;2022-07-29T08:29:14;60.17;;;48.10;;
19617;SDS011;9956;51.006;13.670;2022-07-29T08:34:14;54.63;;;44.13;;
19617;SDS011;9956;51.006;13.670;2022-07-29T08:39:15;51.65;;;39.30;;
19617;SDS011;9956;51.006;13.670;2022-07-29T08:44:16;38.67;;;34.27;;
19617;SDS011;9956;51.006;13.670;2022-07-29T08:49:17;32.42;;;28.92;;
19617;SDS011;9956;51.006;13.670;2022-07-29T08:54:18;34.90;;;28.27;;
19617;SDS011;9956;51.006;13.670;2022-07-29T08:59:19;27.38;;;24.52;;
19617;SDS011;9956;51.006;13.670;2022-07-29T09:04:21;24.45;;;21.85;;
19617;SDS011;9956;51.006;13.670;2022-07-29T09:09:22;23.08;;;20.17;;
19617;SDS011;9956;51.006;13.670;2022-07-29T09:14:23;25.25;;;19.27;;
19617;SDS011;9956;51.006;13.670;2022-07-29T09:19:25;18.88;;;16.00;;
19617;SDS011;9956;51.006;13.670;2022-07-29T09:29:43;22.50;;;16.98;;
19617;SDS011;9956;51.006;13.670;2022-07-29T09:34:43;21.13;;;14.10;;
19617;SDS011;9956;51.006;13.670;2022-07-29T09:39:43;15.90;;;13.50;;
19617;SDS011;9956;51.006;13.670;2022-07-29T09:44:49;20.08;;;15.45;;
19617;SDS011;9956;51.006;13.670;2022-07-29T09:49:56;17.48;;;15.68;;
19617;SDS011;9956;51.006;13.670;2022-07-29T09:55:05;19.45;;;15.05;;
19617;SDS011;9956;51.006;13.670;2022-07-29T10:00:08;21.08;;;16.60;;
19617;SDS011;9956;51.006;13.670;2022-07-29T10:10:23;22.48;;;18.95;;
19617;SDS011;9956;51.006;13.670;2022-07-29T10:15:28;22.60;;;19.23;;
19617;SDS011;9956;51.006;13.670;2022-07-29T10:20:30;14.38;;;12.88;;
19617;SDS011;9956;51.006;13.670;2022-07-29T10:25:30;14.40;;;12.90;;
19617;SDS011;9956;51.006;13.670;2022-07-29T10:30:31;15.43;;;13.20;;
19617;SDS011;9956;51.006;13.670;2022-07-29T10:46:28;9.57;;;6.43;;
19617;SDS011;9956;51.006;13.670;2022-07-29T10:56:52;7.60;;;6.05;;
19617;SDS011;9956;51.006;13.670;2022-07-29T11:01:53;10.57;;;5.90;;
19617;SDS011;9956;51.006;13.670;2022-07-29T11:12:02;5.85;;;4.25;;
19617;SDS011;9956;51.006;13.670;2022-07-29T11:17:03;4.20;;;2.72;;
19617;SDS011;9956;51.006;13.670;2022-07-29T11:22:06;5.53;;;2.85;;
19617;SDS011;9956;51.006;13.670;2022-07-29T11:32:16;4.28;;;2.00;;
19617;SDS011;9956;51.006;13.670;2022-07-29T11:37:20;2.78;;;2.50;;
19617;SDS011;9956;51.006;13.670;2022-07-29T11:47:24;3.53;;;2.40;;
19617;SDS011;9956;51.006;13.670;2022-07-29T11:52:36;3.00;;;2.28;;
19617;SDS011;9956;51.006;13.670;2022-07-29T11:57:59;6.13;;;2.47;;
19617;SDS011;9956;51.006;13.670;2022-07-29T12:03:01;4.15;;;2.55;;
19617;SDS011;9956;51.006;13.670;2022-07-29T12:08:08;3.60;;;2.50;;
19617;SDS011;9956;51.006;13.670;2022-07-29T12:13:10;8.82;;;2.45;;
19617;SDS011;9956;51.006;13.670;2022-07-29T12:18:14;4.97;;;2.30;;
19617;SDS011;9956;51.006;13.670;2022-07-29T12:23:15;4.35;;;2.20;;
19617;SDS011;9956;51.006;13.670;2022-07-29T12:28:16;3.75;;;2.10;;
19617;SDS011;9956;51.006;13.670;2022-07-29T12:38:19;5.28;;;2.53;;
19617;SDS011;9956;51.006;13.670;2022-07-29T12:43:21;4.75;;;2.40;;
19617;SDS011;9956;51.006;13.670;2022-07-29T12:48:38;2.97;;;2.22;;
19617;SDS011;9956;51.006;13.670;2022-07-29T12:53:40;3.08;;;2.40;;
19617;SDS011;9956;51.006;13.670;2022-07-29T12:58:41;6.70;;;2.50;;
19617;SDS011;9956;51.006;13.670;2022-07-29T13:03:43;4.20;;;2.60;;
19617;SDS011;9956;51.006;13.670;2022-07-29T13:13:58;4.63;;;2.40;;
19617;SDS011;9956;51.006;13.670;2022-07-29T13:19:17;2.53;;;2.28;;
19617;SDS011;9956;51.006;13.670;2022-07-29T13:24:18;5.78;;;2.50;;
19617;SDS011;9956;51.006;13.670;2022-07-29T13:29:18;4.53;;;2.27;;
19617;SDS011;9956;51.006;13.670;2022-07-29T13:34:18;5.47;;;2.67;;
19617;SDS011;9956;51.006;13.670;2022-07-29T13:39:22;7.13;;;2.67;;
19617;SDS011;9956;51.006;13.670;2022-07-29T13:44:22;4.13;;;2.40;;
19617;SDS011;9956;51.006;13.670;2022-07-29T13:49:22;3.30;;;2.33;;
19617;SDS011;9956;51.006;13.670;2022-07-29T13:54:23;3.23;;;2.17;;
19617;SDS011;9956;51.006;13.670;2022-07-29T13:59:23;4.10;;;2.30;;
19617;SDS011;9956;51.006;13.670;2022-07-29T14:04:24;2.83;;;1.80;;
19617;SDS011;9956;51.006;13.670;2022-07-29T14:09:24;3.75;;;2.45;;
19617;SDS011;9956;51.006;13.670;2022-07-29T14:14:25;3.00;;;2.20;;
19617;SDS011;9956;51.006;13.670;2022-07-29T14:19:25;3.23;;;2.03;;
19617;SDS011;9956;51.006;13.670;2022-07-29T14:24:26;2.90;;;2.25;;
19617;SDS011;9956;51.006;13.670;2022-07-29T14:29:26;7.07;;;2.60;;
19617;SDS011;9956;51.006;13.670;2022-07-29T14:34:30;4.97;;;2.20;;
19617;SDS011;9956;51.006;13.670;2022-07-29T14:39:31;3.50;;;2.30;;
19617;SDS011;9956;51.006;13.670;2022-07-29T14:44:31;4.22;;;2.60;;
19617;SDS011;9956;51.006;13.670;2022-07-29T14:49:32;5.07;;;2.60;;
19617;SDS011;9956;51.006;13.670;2022-07-29T14:54:32;5.70;;;2.47;;
19617;SDS011;9956;51.006;13.670;2022-07-29T14:59:33;2.33;;;2.13;;
19617;SDS011;9956;51.006;13.670;2022-07-29T15:04:33;2.67;;;1.75;;
19617;SDS011;9956;51.006;13.670;2022-07-29T15:09:34;4.43;;;2.10;;
19617;SDS011;9956;51.006;13.670;2022-07-29T15:14:34;5.07;;;2.30;;
19617;SDS011;9956;51.006;13.670;2022-07-29T15:19:35;2.90;;;2.20;;
19617;SDS011;9956;51.006;13.670;2022-07-29T15:24:35;2.88;;;2.53;;
19617;SDS011;9956;51.006;13.670;2022-07-29T15:29:35;2.77;;;2.30;;
19617;SDS011;9956;51.006;13.670;2022-07-29T15:34:37;3.33;;;2.20;;
19617;SDS011;9956;51.006;13.670;2022-07-29T15:39:37;4.88;;;2.60;;
19617;SDS011;9956;51.006;13.670;2022-07-29T15:44:38;4.68;;;2.50;;
19617;SDS011;9956;51.006;13.670;2022-07-29T15:49:39;5.57;;;3.15;;
19617;SDS011;9956;51.006;13.670;2022-07-29T15:54:40;4.80;;;3.22;;
19617;SDS011;9956;51.006;13.670;2022-07-29T15:59:40;8.02;;;3.05;;
19617;SDS011;9956;51.006;13.670;2022-07-29T16:04:41;8.32;;;3.38;;
19617;SDS011;9956;51.006;13.670;2022-07-29T16:09:42;5.23;;;3.47;;
19617;SDS011;9956;51.006;13.670;2022-07-29T16:14:43;6.50;;;3.15;;
19617;SDS011;9956;51.006;13.670;2022-07-29T16:19:44;3.50;;;3.20;;
19617;SDS011;9956;51.006;13.670;2022-07-29T16:24:44;6.40;;;3.20;;
19617;SDS011;9956;51.006;13.670;2022-07-29T16:29:45;5.20;;;4.20;;
19617;SDS011;9956;51.006;13.670;2022-07-29T16:34:47;4.68;;;4.28;;
19617;SDS011;9956;51.006;13.670;2022-07-29T16:39:47;6.00;;;5.05;;
19617;SDS011;9956;51.006;13.670;2022-07-29T16:44:47;4.32;;;3.80;;
19617;SDS011;9956;51.006;13.670;2022-07-29T16:49:48;4.95;;;3.75;;
19617;SDS011;9956;51.006;13.670;2022-07-29T16:54:48;5.07;;;3.35;;
19617;SDS011;9956;51.006;13.670;2022-07-29T16:59:50;4.72;;;3.97;;
19617;SDS011;9956;51.006;13.670;2022-07-29T17:04:50;4.88;;;4.00;;
19617;SDS011;9956;51.006;13.670;2022-07-29T17:09:51;7.57;;;5.72;;
19617;SDS011;9956;51.006;13.670;2022-07-29T17:14:51;8.05;;;6.18;;
19617;SDS011;9956;51.006;13.670;2022-07-29T17:19:51;8.05;;;7.25;;
19617;SDS011;9956;51.006;13.670;2022-07-29T17:24:52;8.77;;;7.57;;
19617;SDS011;9956;51.006;13.670;2022-07-29T17:29:52;8.60;;;7.68;;
19617;SDS011;9956;51.006;13.670;2022-07-29T17:34:53;9.15;;;7.72;;
19617;SDS011;9956;51.006;13.670;2022-07-29T17:39:53;9.45;;;7.65;;
19617;SDS011;9956;51.006;13.670;2022-07-29T17:44:54;8.82;;;6.43;;
19617;SDS011;9956;51.006;13.670;2022-07-29T17:49:54;7.03;;;6.32;;
19617;SDS011;9956;51.006;13.670;2022-07-29T17:54:54;9.32;;;5.88;;
19617;SDS011;9956;51.006;13.670;2022-07-29T17:59:55;7.53;;;4.65;;
19617;SDS011;9956;51.006;13.670;2022-07-29T18:04:55;8.63;;;4.30;;
19617;SDS011;9956;51.006;13.670;2022-07-29T18:09:56;6.50;;;4.53;;
19617;SDS011;9956;51.006;13.670;2022-07-29T18:14:56;5.90;;;4.20;;
19617;SDS011;9956;51.006;13.670;2022-07-29T18:19:57;5.50;;;4.13;;
19617;SDS011;9956;51.006;13.670;2022-07-29T18:24:57;6.00;;;4.18;;
19617;SDS011;9956;51.006;13.670;2022-07-29T18:29:57;8.38;;;4.22;;
19617;SDS011;9956;51.006;13.670;2022-07-29T18:34:58;5.63;;;4.00;;
19617;SDS011;9956;51.006;13.670;2022-07-29T18:46:28;9.23;;;4.35;;
19617;SDS011;9956;51.006;13.670;2022-07-29T18:51:28;10.63;;;4.43;;
19617;SDS011;9956;51.006;13.670;2022-07-29T18:56:28;8.27;;;4.15;;
19617;SDS011;9956;51.006;13.670;2022-07-29T19:01:29;8.10;;;4.28;;
19617;SDS011;9956;51.006;13.670;2022-07-29T19:06:30;7.97;;;4.07;;
19617;SDS011;9956;51.006;13.670;2022-07-29T19:11:30;9.07;;;4.93;;
19617;SDS011;9956;51.006;13.670;2022-07-29T19:16:30;10.65;;;5.70;;
19617;SDS011;9956;51.006;13.670;2022-07-29T19:21:31;8.23;;;4.97;;
19617;SDS011;9956;51.006;13.670;2022-07-29T19:26:32;5.13;;;3.88;;
19617;SDS011;9956;51.006;13.670;2022-07-29T19:31:35;5.20;;;4.70;;
19617;SDS011;9956;51.006;13.670;2022-07-29T19:36:35;5.65;;;4.57;;
19617;SDS011;9956;51.006;13.670;2022-07-29T19:41:37;7.45;;;4.70;;
19617;SDS011;9956;51.006;13.670;2022-07-29T19:46:37;7.72;;;5.70;;
19617;SDS011;9956;51.006;13.670;2022-07-29T19:51:39;7.95;;;4.80;;
19617;SDS011;9956;51.006;13.670;2022-07-29T19:56:40;8.52;;;4.20;;
19617;SDS011;9956;51.006;13.670;2022-07-29T20:01:41;6.30;;;4.60;;
19617;SDS011;9956;51.006;13.670;2022-07-29T20:06:41;6.50;;;4.70;;
19617;SDS011;9956;51.006;13.670;2022-07-29T20:11:42;6.57;;;5.28;;
19617;SDS011;9956;51.006;13.670;2022-07-29T20:16:42;7.60;;;4.85;;
19617;SDS011;9956;51.006;13.670;2022-07-29T20:21:43;6.80;;;4.80;;
19617;SDS011;9956;51.006;13.670;2022-07-29T20:26:43;5.13;;;4.38;;
19617;SDS011;9956;51.006;13.670;2022-07-29T20:31:43;7.72;;;4.85;;
19617;SDS011;9956;51.006;13.670;2022-07-29T20:36:44;7.70;;;4.80;;
19617;SDS011;9956;51.006;13.670;2022-07-29T20:41:45;9.93;;;4.50;;
19617;SDS011;9956;51.006;13.670;2022-07-29T20:46:46;6.95;;;4.65;;
19617;SDS011;9956;51.006;13.670;2022-07-29T20:51:47;5.47;;;3.67;;
19617;SDS011;9956;51.006;13.670;2022-07-29T20:56:48;5.32;;;3.60;;
19617;SDS011;9956;51.006;13.670;2022-07-29T21:01:49;9.25;;;3.40;;
19617;SDS011;9956;51.006;13.670;2022-07-29T21:06:49;4.65;;;3.65;;
19617;SDS011;9956;51.006;13.670;2022-07-29T21:11:50;4.82;;;3.20;;
19617;SDS011;9956;51.006;13.670;2022-07-29T21:16:50;5.60;;;3.58;;
19617;SDS011;9956;51.006;13.670;2022-07-29T21:21:51;6.80;;;3.28;;
19617;SDS011;9956;51.006;13.670;2022-07-29T21:26:51;5.68;;;3.35;;
19617;SDS011;9956;51.006;13.670;2022-07-29T21:32:12;5.15;;;3.60;;
19617;SDS011;9956;51.006;13.670;2022-07-29T21:37:12;9.05;;;3.50;;
19617;SDS011;9956;51.006;13.670;2022-07-29T21:42:12;7.07;;;3.97;;
19617;SDS011;9956;51.006;13.670;2022-07-29T21:47:13;4.53;;;3.42;;
19617;SDS011;9956;51.006;13.670;2022-07-29T21:52:13;4.78;;;4.28;;
19617;SDS011;9956;51.006;13.670;2022-07-29T21:57:14;7.53;;;4.82;;
19617;SDS011;9956;51.006;13.670;2022-07-29T22:02:14;5.20;;;4.70;;
19617;SDS011;9956;51.006;13.670;2022-07-29T22:07:15;6.22;;;4.93;;
19617;SDS011;9956;51.006;13.670;2022-07-29T22:12:15;7.20;;;5.28;;
19617;SDS011;9956;51.006;13.670;2022-07-29T22:17:15;7.55;;;4.78;;
19617;SDS011;9956;51.006;13.670;2022-07-29T22:22:16;6.47;;;4.80;;
19617;SDS011;9956;51.006;13.670;2022-07-29T22:27:17;9.27;;;4.88;;
19617;SDS011;9956;51.006;13.670;2022-07-29T22:32:17;7.85;;;5.32;;
19617;SDS011;9956;51.006;13.670;2022-07-29T22:37:19;7.10;;;5.10;;
19617;SDS011;9956;51.006;13.670;2022-07-29T22:42:19;8.48;;;5.13;;
19617;SDS011;9956;51.006;13.670;2022-07-29T22:47:20;5.90;;;4.90;;
19617;SDS011;9956;51.006;13.670;2022-07-29T22:52:20;6.47;;;5.18;;
19617;SDS011;9956;51.006;13.670;2022-07-29T22:57:20;7.55;;;5.45;;
19617;SDS011;9956;51.006;13.670;2022-07-29T23:02:21;7.10;;;5.13;;
19617;SDS011;9956;51.006;13.670;2022-07-29T23:07:21;6.07;;;5.22;;
19617;SDS011;9956;51.006;13.670;2022-07-29T23:12:22;6.25;;;5.35;;
19617;SDS011;9956;51.006;13.670;2022-07-29T23:17:22;6.72;;;5.72;;
19617;SDS011;9956;51.006;13.670;2022-07-29T23:22:23;12.60;;;9.90;;
19617;SDS011;9956;51.006;13.670;2022-07-29T23:27:23;13.32;;;11.20;;
19617;SDS011;9956;51.006;13.670;2022-07-29T23:32:24;14.45;;;9.52;;
19617;SDS011;9956;51.006;13.670;2022-07-29T23:37:24;15.75;;;8.65;;
19617;SDS011;9956;51.006;13.670;2022-07-29T23:42:25;10.05;;;7.25;;
19617;SDS011;9956;51.006;13.670;2022-07-29T23:47:25;7.03;;;6.32;;
19617;SDS011;9956;51.006;13.670;2022-07-29T23:52:27;6.30;;;5.72;;
19617;SDS011;9956;51.006;13.670;2022-07-29T23:57:28;5.95;;;5.35;;
